Terminal Aerodrome Forecast
Issued by NWS

Home | Current Version | Previous Version | Text Only | Print | Product List | Glossary On
Versions: 1 2 3 4 5 6 7 8 9 10 11 12
000
FTUS45 KRIW 192320
TAFWRL
TAF
KWRL 192320Z 2000/2024 34011G18KT P6SM BKN070
     FM200100 29009KT P6SM BKN090
     FM200800 16008KT P6SM SCT100 SCT200
     FM201800 20013G18KT P6SM SCT070 SCT200
     FM202000 22018G26KT P6SM SCT080 BKN200=

USA.gov is the U.S. government's official web portal to all federal, state and local government web resources and services.